Alterosa, Brazil
Current Conditions -  °F | °C
As of 6:00 PM on Tuesday 21 Oct 2014 (Local Time) from SBYS Reporting Station
Clear Clear  
Wind Chill: 79°   Ceiling: Unl
Heat Index: 80°   Visibility: 6mi
Dew Point: 57°   Wind: 16mph
Humidity: 47%   Direction: 170°S
Pressure: 30"   Gusts: NA
Location:  21.25°S, 46.14°W
Report Text: SBYS 212000Z 17014KT CAVOK 26/14 Q1016
Loading
Personal Weather Stations






























Interactive Weather Map
Tropical Storm Tracking
New forecast layout! Learn more

10-Day Weather Forecast

Advertisements
Track Severe Weather on mobile